createdAt,value
2018-03-06T00:01:18.154Z,-1.80
2018-03-06T00:04:21.777Z,-1.80
2018-03-06T00:07:25.386Z,-1.80
2018-03-06T00:10:28.858Z,-1.80
2018-03-06T00:13:32.289Z,-1.80
2018-03-06T00:16:35.769Z,-1.80
2018-03-06T00:19:39.302Z,-1.80
2018-03-06T00:22:42.709Z,-1.80
2018-03-06T00:25:47.185Z,-1.80
2018-03-06T00:28:59.599Z,-1.90
2018-03-06T00:32:05.174Z,-1.90
2018-03-06T00:35:08.871Z,-1.90
2018-03-06T00:38:12.367Z,-2.00
2018-03-06T00:41:15.802Z,-2.00
2018-03-06T00:44:19.286Z,-2.10
2018-03-06T00:47:22.673Z,-2.10
2018-03-06T00:50:26.071Z,-2.10
2018-03-06T00:53:30.180Z,-2.20
2018-03-06T00:56:33.510Z,-2.20
2018-03-06T00:59:36.971Z,-2.20
2018-03-06T01:02:40.398Z,-2.20
2018-03-06T01:05:43.853Z,-2.20
2018-03-06T01:08:47.986Z,-2.20
2018-03-06T01:11:52.125Z,-2.20
2018-03-06T01:14:55.547Z,-2.30
2018-03-06T01:17:58.907Z,-2.40
2018-03-06T01:21:02.398Z,-2.40
2018-03-06T01:24:06.491Z,-2.50
2018-03-06T01:27:10.658Z,-2.50
2018-03-06T01:30:14.000Z,-2.50
2018-03-06T01:33:18.108Z,-2.60
2018-03-06T01:36:21.478Z,-2.60
2018-03-06T01:39:25.140Z,-2.70
2018-03-06T01:42:29.385Z,-2.60
2018-03-06T01:45:32.958Z,-2.70
2018-03-06T01:48:36.412Z,-2.70
2018-03-06T01:51:51.645Z,-2.60
2018-03-06T01:54:55.752Z,-2.60
2018-03-06T01:58:00.716Z,-2.60
2018-03-06T02:01:04.993Z,-2.70
2018-03-06T02:04:09.328Z,-2.60
2018-03-06T02:07:13.427Z,-2.70
2018-03-06T02:10:16.908Z,-2.70
2018-03-06T02:13:21.014Z,-2.70
2018-03-06T02:16:24.418Z,-2.80
2018-03-06T02:19:27.912Z,-2.80
2018-03-06T02:22:31.279Z,-2.80
2018-03-06T02:25:34.615Z,-2.90
2018-03-06T02:28:38.138Z,-2.90
2018-03-06T02:31:41.505Z,-2.80
2018-03-06T02:34:44.902Z,-2.80
2018-03-06T02:37:48.269Z,-2.90
2018-03-06T02:40:51.823Z,-2.90
2018-03-06T02:43:56.056Z,-3.00
2018-03-06T02:46:59.516Z,-3.00
2018-03-06T02:50:03.012Z,-3.10
2018-03-06T02:53:06.341Z,-3.10
2018-03-06T02:56:09.712Z,-3.10
2018-03-06T02:59:13.369Z,-3.00
2018-03-06T03:02:16.829Z,-3.10
2018-03-06T03:05:20.436Z,-3.10
2018-03-06T03:08:23.867Z,-3.10
2018-03-06T03:11:27.276Z,-3.10
2018-03-06T03:14:31.402Z,-3.20
2018-03-06T03:17:34.773Z,-3.20
2018-03-06T03:20:38.226Z,-3.20
2018-03-06T03:23:41.564Z,-3.20
2018-03-06T03:26:44.856Z,-3.20
2018-03-06T03:29:48.221Z,-3.20
2018-03-06T03:32:51.607Z,-3.20
2018-03-06T03:35:54.962Z,-3.10
2018-03-06T03:38:58.247Z,-3.10
2018-03-06T03:42:01.979Z,-3.20
2018-03-06T03:45:05.314Z,-3.20
2018-03-06T03:48:08.644Z,-3.20
2018-03-06T03:51:11.910Z,-3.20
2018-03-06T03:54:15.293Z,-3.20
2018-03-06T03:57:18.610Z,-3.30
2018-03-06T04:00:21.931Z,-3.20
2018-03-06T04:03:25.261Z,-3.30
2018-03-06T04:06:28.660Z,-3.40
2018-03-06T04:09:32.002Z,-3.40
2018-03-06T04:12:35.338Z,-3.30
2018-03-06T04:15:38.705Z,-3.40
2018-03-06T04:18:47.566Z,-3.50
2018-03-06T04:21:50.920Z,-3.50
2018-03-06T04:24:55.188Z,-3.50
2018-03-06T04:27:59.365Z,-3.50
2018-03-06T04:31:03.929Z,-3.50
2018-03-06T04:34:08.089Z,-3.50
2018-03-06T04:37:11.451Z,-3.50
2018-03-06T04:40:15.553Z,-3.50
2018-03-06T04:43:19.222Z,-3.50
2018-03-06T04:46:22.550Z,-3.50
2018-03-06T04:49:25.910Z,-3.50
2018-03-06T04:52:29.256Z,-3.50
2018-03-06T04:55:32.636Z,-3.50
2018-03-06T04:58:35.943Z,-3.60
2018-03-06T05:01:39.289Z,-3.60
2018-03-06T05:04:42.834Z,-3.60
2018-03-06T05:07:46.156Z,-3.60
2018-03-06T05:10:50.277Z,-3.70
2018-03-06T05:13:53.649Z,-3.70
2018-03-06T05:16:57.030Z,-3.70
2018-03-06T05:20:00.454Z,-3.70
2018-03-06T05:23:04.571Z,-3.70
2018-03-06T05:26:07.943Z,-3.70
2018-03-06T05:29:11.314Z,-3.60
2018-03-06T05:32:15.428Z,-3.70
2018-03-06T05:35:18.791Z,-3.70
2018-03-06T05:38:22.148Z,-3.70
2018-03-06T05:41:25.495Z,-3.70
2018-03-06T05:44:28.823Z,-3.70
2018-03-06T05:47:32.216Z,-3.70
2018-03-06T05:50:35.535Z,-3.70
2018-03-06T05:53:38.944Z,-3.70
2018-03-06T05:56:42.349Z,-3.70
2018-03-06T05:59:45.734Z,-3.70
2018-03-06T06:02:49.145Z,-3.70
2018-03-06T06:05:52.464Z,-3.70
2018-03-06T06:08:55.836Z,-3.70
2018-03-06T06:11:59.246Z,-3.60
2018-03-06T06:15:02.706Z,-3.60
2018-03-06T06:18:06.736Z,-3.50
2018-03-06T06:21:10.096Z,-3.50
2018-03-06T06:24:14.236Z,-3.50
2018-03-06T06:27:18.412Z,-3.50
2018-03-06T06:30:21.754Z,-3.50
2018-03-06T06:33:25.187Z,-3.30
2018-03-06T06:36:28.555Z,-3.30
2018-03-06T06:39:31.919Z,-3.10
2018-03-06T06:42:36.047Z,-3.00
2018-03-06T06:45:39.364Z,-3.00
2018-03-06T06:48:43.447Z,-2.80
2018-03-06T06:51:46.804Z,-2.80
2018-03-06T06:54:50.476Z,-2.60
2018-03-06T06:57:54.533Z,-2.40
2018-03-06T07:00:57.857Z,-2.40
2018-03-06T07:04:01.300Z,-2.20
2018-03-06T07:07:05.505Z,-2.00
2018-03-06T07:10:08.816Z,-2.00
2018-03-06T07:13:13.079Z,-1.90
2018-03-06T07:16:16.402Z,-1.90
2018-03-06T07:19:19.736Z,-1.60
2018-03-06T07:22:23.018Z,-1.40
2018-03-06T07:25:27.131Z,-1.30
2018-03-06T07:28:30.457Z,-1.40
2018-03-06T07:31:33.758Z,-1.40
2018-03-06T07:34:37.107Z,-1.30
2018-03-06T07:37:40.400Z,-1.30
2018-03-06T07:40:43.859Z,-1.20
2018-03-06T07:43:47.205Z,-1.10
2018-03-06T07:46:51.315Z,-0.60
2018-03-06T07:49:54.666Z,-0.60
2018-03-06T07:52:58.004Z,-0.70
2018-03-06T07:56:02.136Z,-0.20
2018-03-06T08:02:15.995Z,0.40
2018-03-06T08:05:20.068Z,0.60
2018-03-06T08:08:23.413Z,0.50
2018-03-06T08:11:26.755Z,0.70
2018-03-06T08:14:30.068Z,0.70
2018-03-06T08:17:33.429Z,0.70
2018-03-06T08:20:37.467Z,0.80
2018-03-06T08:23:41.230Z,0.80
2018-03-06T08:26:45.438Z,1.00
2018-03-06T08:29:48.966Z,1.00
2018-03-06T08:32:52.492Z,1.20
2018-03-06T08:35:55.875Z,1.50
2018-03-06T08:38:59.254Z,1.60
2018-03-06T08:42:02.644Z,2.00
2018-03-06T08:45:05.932Z,1.90
2018-03-06T08:48:10.019Z,2.40
2018-03-06T08:51:13.389Z,2.40
2018-03-06T08:54:16.674Z,2.30
2018-03-06T08:57:20.760Z,2.60
2018-03-06T09:00:24.174Z,2.60
2018-03-06T09:03:28.274Z,2.90
2018-03-06T09:06:31.939Z,2.80
2018-03-06T09:09:35.221Z,3.00
2018-03-06T09:12:39.267Z,3.10
2018-03-06T09:15:42.731Z,3.10
2018-03-06T09:18:46.199Z,3.20
2018-03-06T09:21:49.465Z,3.70
2018-03-06T09:24:52.759Z,3.80
2018-03-06T09:27:56.100Z,4.00
2018-03-06T09:31:00.161Z,4.60
2018-03-06T09:34:03.508Z,4.60
2018-03-06T09:37:07.654Z,4.80
2018-03-06T09:40:11.737Z,4.40
2018-03-06T09:43:15.082Z,4.40
2018-03-06T09:46:18.493Z,4.70
2018-03-06T09:49:21.796Z,5.10
2018-03-06T09:52:26.079Z,5.70
2018-03-06T09:55:29.437Z,5.70
2018-03-06T09:58:33.592Z,6.10
2018-03-06T10:01:37.021Z,6.10
2018-03-06T10:04:40.426Z,6.20
2018-03-06T10:07:43.863Z,6.00
2018-03-06T10:10:47.982Z,6.20
2018-03-06T10:13:51.346Z,6.20
2018-03-06T10:16:54.759Z,6.80
2018-03-06T10:19:58.024Z,7.00
2018-03-06T10:23:01.366Z,7.20
2018-03-06T10:26:04.714Z,7.50
2018-03-06T10:29:08.001Z,7.30
2018-03-06T10:32:11.321Z,6.80
2018-03-06T10:35:14.693Z,6.50
2018-03-06T10:38:18.022Z,7.20
2018-03-06T10:41:22.131Z,7.30
2018-03-06T10:44:25.875Z,7.30
2018-03-06T10:47:29.148Z,6.70
2018-03-06T10:50:32.516Z,6.20
2018-03-06T10:53:35.812Z,6.20
2018-03-06T10:56:39.105Z,6.30
2018-03-06T10:59:42.516Z,6.90
2018-03-06T11:02:45.833Z,7.40
2018-03-06T11:05:49.177Z,7.90
2018-03-06T11:08:52.509Z,8.10
2018-03-06T11:11:55.926Z,8.50
2018-03-06T11:14:59.252Z,8.30
2018-03-06T11:18:03.512Z,8.40
2018-03-06T11:21:06.872Z,8.40
2018-03-06T11:24:10.216Z,8.50
2018-03-06T11:27:13.573Z,8.80
2018-03-06T11:30:16.932Z,8.90
2018-03-06T11:33:20.228Z,8.80
2018-03-06T11:36:23.526Z,8.70
2018-03-06T11:39:26.944Z,8.70
2018-03-06T11:42:30.273Z,8.70
2018-03-06T11:45:33.620Z,8.70
2018-03-06T11:48:36.939Z,9.20
2018-03-06T11:51:40.255Z,8.90
2018-03-06T11:54:43.663Z,8.50
2018-03-06T11:57:47.724Z,8.70
2018-03-06T12:00:51.174Z,8.70
2018-03-06T12:03:55.368Z,8.90
2018-03-06T12:06:58.683Z,8.90
2018-03-06T12:10:01.976Z,9.00
2018-03-06T12:13:05.342Z,8.90
2018-03-06T12:16:08.700Z,8.70
2018-03-06T12:19:12.036Z,8.80
2018-03-06T12:22:15.337Z,8.60
2018-03-06T12:25:18.663Z,8.50
2018-03-06T12:28:22.862Z,8.50
2018-03-06T12:31:26.238Z,8.50
2018-03-06T12:34:29.600Z,8.50
2018-03-06T12:37:33.027Z,8.20
2018-03-06T12:40:36.353Z,8.20
2018-03-06T12:43:40.462Z,8.10
2018-03-06T12:46:43.982Z,8.10
2018-03-06T12:49:47.363Z,8.30
2018-03-06T12:52:50.661Z,8.40
2018-03-06T12:55:53.978Z,8.40
2018-03-06T12:58:57.322Z,8.30
2018-03-06T13:02:00.657Z,8.20
2018-03-06T13:05:03.995Z,7.80
2018-03-06T13:08:07.379Z,7.90
2018-03-06T13:11:10.713Z,8.00
2018-03-06T13:14:14.030Z,8.10
2018-03-06T13:17:17.337Z,8.20
2018-03-06T13:20:20.692Z,8.10
2018-03-06T13:23:24.032Z,7.90
2018-03-06T13:26:27.432Z,7.70
2018-03-06T13:29:31.627Z,7.50
2018-03-06T13:32:34.977Z,7.50
2018-03-06T13:35:39.080Z,7.50
2018-03-06T13:38:42.464Z,7.50
2018-03-06T13:41:45.843Z,7.60
2018-03-06T13:44:49.175Z,7.40
2018-03-06T13:47:53.286Z,7.40
2018-03-06T13:50:56.648Z,7.40
2018-03-06T13:53:59.973Z,7.40
2018-03-06T13:57:03.325Z,7.40
2018-03-06T14:00:06.676Z,7.50
2018-03-06T14:03:10.062Z,7.50
2018-03-06T14:06:13.397Z,7.20
2018-03-06T14:09:16.831Z,7.20
2018-03-06T14:12:20.284Z,7.20
2018-03-06T14:15:24.437Z,7.30
2018-03-06T14:18:27.772Z,7.20
2018-03-06T14:21:31.225Z,7.30
2018-03-06T14:24:35.288Z,7.30
2018-03-06T14:27:38.657Z,7.30
2018-03-06T14:30:42.110Z,7.10
2018-03-06T14:33:45.592Z,7.20
2018-03-06T14:36:49.703Z,7.10
2018-03-06T14:39:53.919Z,7.00
2018-03-06T14:42:57.248Z,7.00
2018-03-06T14:46:01.368Z,6.90
2018-03-06T14:49:04.773Z,6.90
2018-03-06T14:52:08.102Z,6.90
2018-03-06T14:55:11.471Z,6.80
2018-03-06T14:58:14.870Z,6.90
2018-03-06T15:01:18.948Z,6.80
2018-03-06T15:04:22.325Z,6.80
2018-03-06T15:07:25.638Z,6.90
2018-03-06T15:10:28.992Z,6.90
2018-03-06T15:13:32.355Z,6.90
2018-03-06T15:16:35.628Z,6.90
2018-03-06T15:19:38.926Z,6.90
2018-03-06T15:22:42.421Z,6.70
2018-03-06T15:25:45.758Z,6.50
2018-03-06T15:28:49.056Z,6.50
2018-03-06T15:31:53.127Z,6.30
2018-03-06T15:34:56.456Z,6.30
2018-03-06T15:37:59.724Z,6.30
2018-03-06T15:41:03.631Z,6.20
2018-03-06T15:44:07.026Z,6.00
2018-03-06T15:47:10.502Z,6.00
2018-03-06T15:50:13.903Z,6.00
2018-03-06T15:53:17.348Z,5.90
2018-03-06T15:56:20.709Z,5.90
2018-03-06T15:59:24.204Z,5.80
2018-03-06T16:02:27.575Z,5.90
2018-03-06T16:05:30.959Z,5.70
2018-03-06T16:08:34.371Z,5.70
2018-03-06T16:11:37.786Z,5.70
2018-03-06T16:14:41.214Z,5.60
2018-03-06T16:17:45.457Z,5.40
2018-03-06T16:20:48.890Z,5.40
2018-03-06T16:23:52.334Z,5.40
2018-03-06T16:26:55.722Z,5.20
2018-03-06T16:29:59.245Z,5.10
2018-03-06T16:33:02.660Z,5.00
2018-03-06T16:36:06.068Z,4.90
2018-03-06T16:39:10.210Z,4.70
2018-03-06T16:42:13.649Z,4.70
2018-03-06T16:45:16.997Z,4.60
2018-03-06T16:48:20.427Z,4.50
2018-03-06T16:51:23.845Z,4.50
2018-03-06T16:54:27.299Z,4.40
2018-03-06T16:57:30.577Z,4.40
2018-03-06T17:00:33.844Z,4.30
2018-03-06T17:03:37.157Z,4.30
2018-03-06T17:06:40.428Z,4.20
2018-03-06T17:09:43.864Z,4.20
2018-03-06T17:12:47.215Z,4.20
2018-03-06T17:15:51.350Z,4.10
2018-03-06T17:18:54.714Z,4.10
2018-03-06T17:21:58.764Z,4.00
2018-03-06T17:25:02.058Z,4.00
2018-03-06T17:28:05.329Z,4.00
2018-03-06T17:31:09.388Z,3.90
2018-03-06T17:34:12.693Z,3.90
2018-03-06T17:37:15.982Z,3.80
2018-03-06T17:40:19.265Z,3.80
2018-03-06T17:43:22.582Z,3.80
2018-03-06T17:46:25.926Z,3.80
2018-03-06T17:49:29.981Z,3.70
2018-03-06T17:52:33.230Z,3.70
2018-03-06T17:55:39.440Z,3.60
2018-03-06T17:58:42.821Z,3.50
2018-03-06T18:01:46.126Z,3.50
2018-03-06T18:04:49.439Z,3.40
2018-03-06T18:07:52.731Z,3.40
2018-03-06T18:10:56.148Z,3.30
2018-03-06T18:13:59.441Z,3.30
2018-03-06T18:17:02.902Z,3.20
2018-03-06T18:20:06.226Z,3.20
2018-03-06T18:23:09.535Z,3.10
2018-03-06T18:26:12.907Z,3.10
2018-03-06T18:29:16.232Z,3.10
2018-03-06T18:32:19.611Z,3.00
2018-03-06T18:35:22.942Z,3.00
2018-03-06T18:38:26.492Z,2.90
2018-03-06T18:41:30.109Z,2.90
2018-03-06T18:44:35.467Z,2.80
2018-03-06T18:47:39.026Z,2.70
2018-03-06T18:50:54.433Z,2.70
2018-03-06T18:53:58.312Z,2.70
2018-03-06T18:57:01.888Z,2.70
2018-03-06T19:00:37.547Z,2.60
2018-03-06T19:07:20.630Z,2.50
2018-03-06T19:10:24.476Z,2.50
2018-03-06T19:13:28.146Z,2.40
2018-03-06T19:16:31.649Z,2.40
2018-03-06T19:19:36.005Z,2.40
2018-03-06T19:22:39.315Z,2.30
2018-03-06T19:25:42.802Z,2.30
2018-03-06T19:28:46.166Z,2.30
2018-03-06T19:31:49.515Z,2.30
2018-03-06T19:34:52.807Z,2.20
2018-03-06T19:37:56.235Z,2.20
2018-03-06T19:40:59.502Z,2.20
2018-03-06T19:44:03.629Z,2.20
2018-03-06T19:47:06.933Z,2.20
2018-03-06T19:50:10.235Z,2.20
2018-03-06T19:53:13.695Z,2.10
2018-03-06T19:56:17.862Z,2.00
2018-03-06T19:59:21.944Z,2.00
2018-03-06T20:02:25.377Z,2.00
2018-03-06T20:05:28.802Z,2.10
2018-03-06T20:08:32.163Z,2.00
2018-03-06T20:11:35.458Z,2.00
2018-03-06T20:14:44.526Z,2.00
2018-03-06T20:17:47.874Z,2.00
2018-03-06T20:20:51.213Z,1.90
2018-03-06T20:23:54.513Z,1.90
2018-03-06T20:26:58.713Z,1.90
2018-03-06T20:30:02.079Z,1.90
2018-03-06T20:33:10.998Z,1.90
2018-03-06T20:36:14.441Z,1.80
2018-03-06T20:39:23.393Z,1.90
2018-03-06T20:42:26.788Z,1.80
2018-03-06T20:45:36.043Z,1.80
2018-03-06T20:48:39.405Z,1.80
2018-03-06T20:51:43.052Z,1.80
2018-03-06T20:54:52.279Z,1.70
2018-03-06T20:57:55.625Z,1.80
2018-03-06T21:00:58.973Z,1.70
2018-03-06T21:04:02.534Z,1.70
2018-03-06T21:07:06.612Z,1.70
2018-03-06T21:10:09.941Z,1.70
2018-03-06T21:13:13.247Z,1.70
2018-03-06T21:16:16.549Z,1.70
2018-03-06T21:19:20.660Z,1.60
2018-03-06T21:22:24.792Z,1.60
2018-03-06T21:25:28.964Z,1.60
2018-03-06T21:28:32.466Z,1.60
2018-03-06T21:31:35.790Z,1.60
2018-03-06T21:34:39.863Z,1.60
2018-03-06T21:37:43.408Z,1.60
2018-03-06T21:40:47.558Z,1.60
2018-03-06T21:43:50.911Z,1.50
2018-03-06T21:46:55.077Z,1.50
2018-03-06T21:49:59.159Z,1.50
2018-03-06T21:53:03.343Z,1.50
2018-03-06T21:56:07.477Z,1.50
2018-03-06T21:59:11.599Z,1.50
2018-03-06T22:02:15.115Z,1.50
2018-03-06T22:05:18.510Z,1.50
2018-03-06T22:08:22.611Z,1.40
2018-03-06T22:11:25.916Z,1.40
2018-03-06T22:14:30.075Z,1.40
2018-03-06T22:17:33.398Z,1.40
2018-03-06T22:20:36.806Z,1.40
2018-03-06T22:26:50.054Z,1.50
2018-03-06T22:29:53.337Z,1.50
2018-03-06T22:32:56.795Z,1.40
2018-03-06T22:36:01.131Z,1.40
2018-03-06T22:39:04.648Z,1.30
2018-03-06T22:42:08.060Z,1.30
2018-03-06T22:45:11.511Z,1.30
2018-03-06T22:48:14.902Z,1.30
2018-03-06T22:51:18.291Z,1.30
2018-03-06T22:54:21.603Z,1.30
2018-03-06T22:57:25.054Z,1.30
2018-03-06T23:00:28.408Z,1.30
2018-03-06T23:03:32.556Z,1.20
2018-03-06T23:06:36.343Z,1.10
2018-03-06T23:09:39.862Z,1.20
2018-03-06T23:12:43.811Z,1.10
2018-03-06T23:15:49.308Z,1.00
2018-03-06T23:18:52.670Z,1.00
2018-03-06T23:21:56.273Z,1.00
2018-03-06T23:24:59.634Z,1.00
2018-03-06T23:28:03.072Z,1.00
2018-03-06T23:31:06.424Z,0.90
2018-03-06T23:34:09.784Z,0.90
2018-03-06T23:37:13.176Z,0.90
2018-03-06T23:40:17.332Z,0.90
2018-03-06T23:43:20.699Z,0.90
2018-03-06T23:46:24.909Z,0.80
2018-03-06T23:49:28.343Z,0.80
2018-03-06T23:52:32.433Z,0.70
2018-03-06T23:55:35.969Z,0.70
2018-03-06T23:58:39.281Z,0.70
